CYCY

Clyde River Airport

Clyde River, Canada
TAF CYCY 201238Z 2013/2101 33015G25KT P6SM -RA SCT006 OVC040 TEMPO 2013/2022 21/2SM -SHRA BR BKN006 OVC020 FM202200 34008KT P6SM SCT015 BKN050 TEMPO 2022/2101 BKN015 RMK FCST BASED ON AUTO OBS. NXT FCST BY 201900Z
Issued Valid From Valid To
Jul-20 @ 12:38 UTC
(2 hours ago)
Jul-20 @ 13:00 UTC
(an hour ago)
Jul-21 @ 01:00 UTC
(in 11 hours)
Jul-20 @ 13:00 to Jul-20 @ 22:00
TAF CYCY 201238Z 2013/2101 33015G25KT P6SM -RA SCT006 OVC040
Wind Visibility Clouds Conditions
330° at 15 knots
 Gusting to 25 knots
Greater than 6 miles
  • Scattered at 600' AGL
  • Overcast at 4,000' AGL
  • Light Rain
Temporary Jul-20 @ 13:00 to Jul-20 @ 22:00
TEMPO 2013/2022 21/2SM -SHRA BR BKN006 OVC020
Visibility Clouds Conditions
2 1/2 miles
  • Broken at 600' AGL
  • Overcast at 2,000' AGL
  • Light Rain
  • Mist
Temporary Jul-20 @ 22:00 to Jul-21 @ 01:00
TEMPO 2022/2101 BKN015 RMK FCST BASED ON AUTO OBS. NXT FCST BY 201900Z
Clouds
  • Broken at 1,500' AGL
From Jul-20 @ 22:00 to Jul-21 @ 01:00
FM202200 34008KT P6SM SCT015 BKN050
Wind Visibility Clouds
340° at 8 knots Greater than 6 miles
  • Scattered at 1,500' AGL
  • Broken at 5,000' AGL
TAF CYCY 201238Z 2013/2101 33015G25KT P6SM -RA SCT006 OVC040 TEMPO 2013/2022 21/2SM -SHRA BR BKN006 OVC020 FM202200 34008KT P6SM SCT015 BKN050 TEMPO 2022/2101 BKN015 RMK FCST BASED ON AUTO OBS. NXT FCST BY 201900Z
Issued Jul-20 @ 12:38 UTC
(2 hours ago)
Valid From Jul-20 @ 13:00 UTC
(an hour ago)
Valid To Jul-21 @ 01:00 UTC
(in 11 hours)
Jul-20 @ 13:00 - Jul-20 @ 22:00
Wind Visibility
330° at 15 knots
 Gusting to 25 knots
Greater than 6 miles
Clouds
  • Scattered at 600' AGL
  • Overcast at 4,000' AGL
Conditions
  • Light Rain
Temporary Jul-20 @ 13:00 - Jul-20 @ 22:00
Clouds
  • Broken at 600' AGL
  • Overcast at 2,000' AGL
Conditions
  • Light Rain
  • Mist
Temporary Jul-20 @ 22:00 - Jul-21 @ 01:00
Clouds
  • Broken at 1,500' AGL
From Jul-20 @ 22:00 - Jul-21 @ 01:00
Wind Visibility
340° at 8 knots Greater than 6 miles
Clouds
  • Scattered at 1,500' AGL
  • Broken at 5,000' AGL